KGVE

Gordonsville Municipal Airport

Gordonsville, Virginia, USA
METAR KGVE 221455Z AUTO 20008G16KT 10SM CLR 08/01 A3033 RMK AO1 T00810005
Observed Flight Rules
Oct-22 @ 14:55 UTC (31 minutes ago) Visual Flight Rules
Wind Visibility Clouds
200° at 8 knots
 Gusting to 16 knots
10 miles
  • Clear skies
Temperatures Readings
Current 8°C / 46°F
Dewpoint 1°C / 34°F
Humidity 62%
Altimeter 30.33" Hg
Pressure 1027 hPa
Elevation 138
METAR KGVE 221455Z AUTO 20008G16KT 10SM CLR 08/01 A3033 RMK AO1 T00810005
Observed Flight Rules
Oct-22 @ 14:55 UTC
(31 minutes ago)
VFR
Wind Visibility
200° at 8 knots
 Gusting to 16 knots
10 miles
Clouds
  • Clear skies
Temperature Dewpoint
8°C / 46°F 1°C / 34°F
Humidity Altimeter Pressure
62% 30.33" Hg 1027 hPa